Time;durP1;ratioP1;P1;durP2;ratioP2;P2;SDS_P1;SDS_P2;PMS_P1;PMS_P2;Temp;Humidity;BMP_temperature;BMP_pressure;BME280_temperature;BME280_humidity;BME280_pressure;Samples;Min_cycle;Max_cycle;Signal;HPM_P1;HPM_P2
2024/01/18 00:01:30;;;;;;;30.40;16.80;;;;;;;2.37;86.36;97410.46;129435;1279;114849;-66
2024/01/18 00:04:32;;;;;;;26.60;15.30;;;;;;;2.39;86.51;97404.54;129894;1272;115177;-66
2024/01/18 00:07:34;;;;;;;27.50;15.60;;;;;;;2.41;86.55;97407.92;129752;1259;114780;-68
2024/01/18 00:10:36;;;;;;;31.90;16.00;;;;;;;2.42;86.49;97407.82;129878;1257;114830;-66
2024/01/18 00:13:38;;;;;;;28.40;15.50;;;;;;;2.41;86.43;97408.77;129839;1258;114840;-64
2024/01/18 00:16:40;;;;;;;28.90;17.00;;;;;;;2.41;86.47;97407.73;129772;1259;114752;-69
2024/01/18 00:19:41;;;;;;;32.60;16.70;;;;;;;2.41;86.44;97409.87;129806;1260;114713;-66
2024/01/18 00:22:43;;;;;;;30.00;15.80;;;;;;;2.41;86.60;97415.31;129441;1257;116037;-65
2024/01/18 00:25:45;;;;;;;30.40;17.30;;;;;;;2.41;86.63;97415.85;129540;1261;114766;-67
2024/01/18 00:28:47;;;;;;;32.90;18.20;;;;;;;2.40;86.75;97417.11;129834;1278;114756;-65
2024/01/18 00:31:49;;;;;;;30.20;17.30;;;;;;;2.39;86.70;97418.98;129446;1278;128772;-65
2024/01/18 00:34:52;;;;;;;34.10;18.00;;;;;;;2.38;86.49;97430.34;129740;1255;115273;-65
2024/01/18 00:37:54;;;;;;;30.30;17.10;;;;;;;2.36;86.45;97434.14;129978;1256;115196;-67
2024/01/18 00:40:56;;;;;;;30.70;16.40;;;;;;;2.33;86.58;97439.95;129957;1259;114686;-66
2024/01/18 00:43:57;;;;;;;35.80;17.90;;;;;;;2.32;86.36;97436.68;129830;1274;114930;-69
2024/01/18 00:47:00;;;;;;;38.40;19.20;;;;;;;2.28;86.51;97432.81;129839;1256;114866;-66
2024/01/18 00:50:02;;;;;;;34.90;19.60;;;;;;;2.27;86.64;97435.05;129500;1271;114982;-70
2024/01/18 00:53:04;;;;;;;33.80;20.70;;;;;;;2.27;86.46;97442.44;129850;1256;114771;-73
2024/01/18 00:56:09;;;;;;;37.90;21.40;;;;;;;2.26;86.67;97441.58;129901;1259;115129;-68
2024/01/18 00:59:12;;;;;;;36.80;21.90;;;;;;;2.28;86.79;97441.11;129911;1254;114721;-70
2024/01/18 01:02:14;;;;;;;41.00;23.60;;;;;;;2.29;86.83;97440.71;129764;1259;115238;-70
2024/01/18 01:05:16;;;;;;;38.00;21.90;;;;;;;2.29;86.84;97440.55;129898;1258;115293;-66
2024/01/18 01:08:18;;;;;;;38.60;21.70;;;;;;;2.28;86.81;97441.62;129828;1259;115148;-65
2024/01/18 01:11:20;;;;;;;39.00;23.30;;;;;;;2.29;86.79;97449.20;129795;1259;114711;-64
2024/01/18 01:14:22;;;;;;;36.70;20.70;;;;;;;2.28;87.01;97455.56;129953;1269;114804;-65
2024/01/18 01:17:24;;;;;;;38.90;21.70;;;;;;;2.26;86.95;97458.84;129910;1277;127891;-70
2024/01/18 01:20:26;;;;;;;34.30;21.30;;;;;;;2.23;86.68;97465.36;129634;1257;115289;-65
2024/01/18 01:23:28;;;;;;;36.30;21.60;;;;;;;2.23;86.88;97468.21;129847;1261;115014;-67
2024/01/18 01:26:30;;;;;;;38.00;22.70;;;;;;;2.22;86.93;97467.21;129762;1259;114700;-67
2024/01/18 01:29:33;;;;;;;37.20;22.90;;;;;;;2.22;86.98;97470.41;129585;1275;114836;-65
2024/01/18 01:32:35;;;;;;;36.80;20.70;;;;;;;2.24;87.14;97467.11;129931;1277;114846;-66
2024/01/18 01:35:37;;;;;;;33.00;20.10;;;;;;;2.23;87.28;97469.59;129805;1254;114956;-66
2024/01/18 01:38:39;;;;;;;34.80;20.90;;;;;;;2.24;87.15;97474.11;129814;1259;114741;-66
2024/01/18 01:41:41;;;;;;;35.40;23.00;;;;;;;2.24;87.03;97480.48;129854;1270;114795;-67
2024/01/18 01:44:43;;;;;;;31.90;18.40;;;;;;;2.22;87.33;97476.21;129454;1254;114961;-65
2024/01/18 01:47:45;;;;;;;32.70;19.00;;;;;;;2.21;87.18;97474.52;129861;1259;115393;-72
2024/01/18 01:50:47;;;;;;;32.70;19.50;;;;;;;2.20;87.22;97481.41;129890;1259;114754;-67
2024/01/18 01:53:49;;;;;;;31.00;19.00;;;;;;;2.19;87.36;97488.70;129623;1274;115020;-66
2024/01/18 01:56:53;;;;;;;31.90;19.70;;;;;;;2.19;87.18;97490.11;129631;1261;114809;-65
2024/01/18 01:59:55;;;;;;;30.40;19.20;;;;;;;2.19;87.43;97488.73;129830;1259;114677;-77
2024/01/18 02:02:57;;;;;;;31.20;19.50;;;;;;;2.17;87.31;97493.20;129577;1274;115077;-65
2024/01/18 02:05:59;;;;;;;29.00;17.30;;;;;;;2.16;87.41;97495.20;129904;1259;114802;-66
2024/01/18 02:09:02;;;;;;;29.20;18.20;;;;;;;2.14;87.27;97497.63;129868;1258;114709;-65
2024/01/18 02:12:05;;;;;;;31.10;18.50;;;;;;;2.12;87.35;97505.11;129888;1259;114752;-67
2024/01/18 02:15:08;;;;;;;28.70;16.40;;;;;;;2.11;87.32;97511.89;129700;1277;114850;-65
2024/01/18 02:18:10;;;;;;;29.30;17.30;;;;;;;2.10;87.26;97513.02;129842;1260;114770;-67
2024/01/18 02:21:14;;;;;;;30.50;19.50;;;;;;;2.08;87.42;97515.73;129807;1259;114720;-71
2024/01/18 02:24:20;;;;;;;35.10;19.20;;;;;;;2.08;87.49;97518.59;129962;1259;114770;-63
2024/01/18 02:27:23;;;;;;;33.10;18.60;;;;;;;2.07;87.67;97527.42;129924;1254;114718;-72
2024/01/18 02:30:25;;;;;;;27.60;16.70;;;;;;;2.06;87.72;97526.64;129983;1256;114709;-74
2024/01/18 02:33:27;;;;;;;29.70;18.90;;;;;;;2.04;87.83;97526.59;130005;1259;114906;-77
2024/01/18 02:36:29;;;;;;;30.40;16.50;;;;;;;2.02;87.93;97524.38;130005;1277;114773;-69
2024/01/18 02:39:31;;;;;;;26.00;14.40;;;;;;;2.02;88.08;97521.77;129739;1254;114827;-75
2024/01/18 02:42:33;;;;;;;23.50;13.40;;;;;;;2.03;88.36;97522.08;130013;1258;114700;-76
2024/01/18 02:45:36;;;;;;;23.40;14.50;;;;;;;2.03;88.23;97525.73;130045;1259;114700;-65
2024/01/18 02:48:38;;;;;;;25.30;12.10;;;;;;;2.05;88.54;97527.06;129620;1260;114760;-67
2024/01/18 02:51:40;;;;;;;23.30;14.40;;;;;;;2.06;88.64;97533.34;129630;1260;114695;-79
2024/01/18 02:54:42;;;;;;;24.40;13.00;;;;;;;2.07;88.58;97536.75;129894;1270;115177;-67
2024/01/18 02:57:44;;;;;;;23.40;14.10;;;;;;;2.10;88.80;97540.60;129510;1263;128289;-66
2024/01/18 03:00:47;;;;;;;22.90;14.20;;;;;;;2.13;88.99;97538.33;129897;1259;114727;-66
2024/01/18 03:03:49;;;;;;;21.20;13.20;;;;;;;2.15;88.90;97537.34;129623;1261;114700;-65
2024/01/18 03:06:51;;;;;;;21.30;14.50;;;;;;;2.17;89.11;97545.86;129969;1271;114729;-65
2024/01/18 03:09:53;;;;;;;21.10;12.30;;;;;;;2.19;89.17;97540.27;129560;1260;116391;-64
2024/01/18 03:12:56;;;;;;;19.30;11.80;;;;;;;2.20;89.28;97537.91;129909;1259;114793;-68
2024/01/18 03:15:58;;;;;;;19.40;12.30;;;;;;;2.21;89.04;97537.34;129910;1270;114785;-65
2024/01/18 03:19:01;;;;;;;17.70;10.70;;;;;;;2.20;89.03;97539.71;129983;1278;114840;-81
2024/01/18 03:22:03;;;;;;;18.30;11.10;;;;;;;2.20;89.03;97551.52;129822;1259;114889;-64
2024/01/18 03:25:05;;;;;;;19.10;12.90;;;;;;;2.20;89.11;97553.64;129913;1260;114709;-80
2024/01/18 03:28:07;;;;;;;19.80;12.30;;;;;;;2.20;88.93;97554.84;129970;1259;114834;-65
2024/01/18 03:31:11;;;;;;;19.20;13.00;;;;;;;2.21;89.20;97561.30;129813;1259;114680;-70
2024/01/18 03:34:13;;;;;;;19.10;11.80;;;;;;;2.21;88.93;97558.27;129530;1261;114774;-64
2024/01/18 03:37:16;;;;;;;23.30;12.10;;;;;;;2.21;89.06;97564.97;129800;1270;115367;-64
2024/01/18 03:40:18;;;;;;;20.90;11.90;;;;;;;2.22;89.00;97566.36;129862;1271;114953;-64
2024/01/18 03:43:20;;;;;;;20.60;13.30;;;;;;;2.21;89.11;97570.63;130036;1257;114738;-64
2024/01/18 03:46:22;;;;;;;20.60;12.10;;;;;;;2.22;89.04;97573.71;129680;1254;114870;-64
2024/01/18 03:49:24;;;;;;;21.90;13.40;;;;;;;2.23;89.00;97579.85;129983;1260;114717;-64
2024/01/18 03:52:26;;;;;;;22.10;13.10;;;;;;;2.21;88.93;97593.16;129926;1257;114965;-64
2024/01/18 03:55:28;;;;;;;19.60;13.50;;;;;;;2.20;88.95;97608.04;129833;1259;114706;-64
2024/01/18 03:58:30;;;;;;;20.80;12.30;;;;;;;2.20;89.24;97612.96;129739;1260;114715;-64
2024/01/18 04:01:33;;;;;;;22.80;14.80;;;;;;;2.21;89.18;97616.40;129924;1256;115305;-64
2024/01/18 04:04:35;;;;;;;21.70;12.80;;;;;;;2.21;89.21;97623.10;129477;1258;115024;-64
2024/01/18 04:07:38;;;;;;;22.40;15.10;;;;;;;2.19;89.17;97627.80;129853;1259;115616;-64
2024/01/18 04:10:41;;;;;;;23.50;14.70;;;;;;;2.19;89.10;97642.23;129852;1259;114706;-64
2024/01/18 04:13:43;;;;;;;21.40;13.90;;;;;;;2.17;88.99;97646.23;129810;1278;114744;-68
2024/01/18 04:16:45;;;;;;;21.60;13.40;;;;;;;2.15;88.82;97645.83;129881;1259;115145;-65
2024/01/18 04:19:47;;;;;;;20.40;12.70;;;;;;;2.11;88.95;97645.48;129838;1278;128841;-63
2024/01/18 04:22:49;;;;;;;21.80;12.70;;;;;;;2.10;88.88;97648.55;129729;1259;114672;-73
2024/01/18 04:25:52;;;;;;;20.20;11.80;;;;;;;2.09;89.07;97643.16;129887;1259;114769;-64
2024/01/18 04:28:54;;;;;;;20.80;12.60;;;;;;;2.06;88.97;97646.89;129777;1260;115032;-65
2024/01/18 04:31:56;;;;;;;22.70;14.60;;;;;;;2.04;88.94;97656.49;129946;1277;114713;-66
2024/01/18 04:34:58;;;;;;;19.50;13.20;;;;;;;2.02;89.04;97668.40;129858;1259;114741;-64
2024/01/18 04:38:00;;;;;;;22.10;14.30;;;;;;;2.02;88.93;97674.92;129866;1258;114714;-65
2024/01/18 04:41:02;;;;;;;20.60;13.20;;;;;;;2.01;89.08;97681.33;129822;1259;114786;-64
2024/01/18 04:44:04;;;;;;;24.50;15.60;;;;;;;1.98;88.87;97682.67;129759;1256;114805;-66
2024/01/18 04:47:08;;;;;;;27.40;18.00;;;;;;;1.97;88.71;97690.85;129557;1256;114853;-66
2024/01/18 04:50:09;;;;;;;28.20;21.20;;;;;;;1.94;88.71;97698.40;129802;1256;114745;-64
2024/01/18 04:53:11;;;;;;;25.60;16.50;;;;;;;1.90;88.58;97698.98;129928;1259;114995;-65
2024/01/18 04:56:14;;;;;;;25.20;16.80;;;;;;;1.87;88.52;97704.25;129596;1259;115455;-64
2024/01/18 04:59:17;;;;;;;25.30;15.90;;;;;;;1.84;88.68;97702.86;129879;1261;114699;-63
2024/01/18 05:02:19;;;;;;;24.30;15.50;;;;;;;1.78;88.74;97707.36;129844;1277;114693;-64
2024/01/18 05:05:22;;;;;;;27.40;17.00;;;;;;;1.75;88.79;97711.08;129943;1257;114677;-65
2024/01/18 05:08:24;;;;;;;26.20;16.20;;;;;;;1.72;88.82;97715.81;129913;1259;114802;-65
2024/01/18 05:11:26;;;;;;;26.30;16.50;;;;;;;1.69;89.00;97724.97;129626;1261;115077;-66
2024/01/18 05:14:28;;;;;;;27.70;16.00;;;;;;;1.68;88.82;97731.35;129913;1277;115220;-64
2024/01/18 05:17:37;;;;;;;27.40;17.60;;;;;;;1.66;89.16;97736.39;130057;1257;114757;-66
2024/01/18 05:20:39;;;;;;;26.30;17.70;;;;;;;1.65;88.92;97749.60;129616;1262;114633;-67
2024/01/18 05:23:42;;;;;;;25.40;16.20;;;;;;;1.66;89.06;97753.10;129855;1254;114878;-69
2024/01/18 05:26:45;;;;;;;25.50;14.00;;;;;;;1.66;89.16;97757.50;129962;1259;114717;-64
2024/01/18 05:29:47;;;;;;;25.40;15.50;;;;;;;1.65;88.95;97758.42;130074;1255;114699;-65
2024/01/18 05:32:49;;;;;;;30.20;20.60;;;;;;;1.64;89.02;97764.80;130005;1258;114670;-67
2024/01/18 05:35:51;;;;;;;26.80;16.50;;;;;;;1.61;88.98;97770.94;129976;1257;114659;-75
2024/01/18 05:38:53;;;;;;;30.30;20.10;;;;;;;1.59;89.05;97771.77;129972;1277;115077;-65
2024/01/18 05:41:55;;;;;;;26.60;17.70;;;;;;;1.57;88.96;97787.20;130048;1255;114783;-65
2024/01/18 05:44:58;;;;;;;27.60;17.40;;;;;;;1.56;89.21;97800.98;129774;1266;128606;-66
2024/01/18 05:48:01;;;;;;;26.50;16.40;;;;;;;1.57;88.92;97802.86;129921;1257;114726;-64
2024/01/18 05:51:04;;;;;;;27.70;18.20;;;;;;;1.55;89.13;97804.88;129689;1260;114781;-67
2024/01/18 05:54:06;;;;;;;31.00;18.30;;;;;;;1.55;89.07;97795.90;129886;1259;115542;-65
2024/01/18 05:57:08;;;;;;;27.00;16.80;;;;;;;1.54;89.25;97800.73;129995;1254;117362;-66
2024/01/18 06:00:12;;;;;;;33.30;19.00;;;;;;;1.50;89.01;97806.91;130077;1257;114726;-63
2024/01/18 06:03:14;;;;;;;31.60;17.90;;;;;;;1.47;89.05;97816.39;129578;1263;127691;-64
2024/01/18 06:06:16;;;;;;;28.60;17.60;;;;;;;1.40;88.55;97818.84;130026;1261;115331;-64
2024/01/18 06:09:18;;;;;;;32.90;19.70;;;;;;;1.35;88.91;97825.44;130170;1254;114706;-65
2024/01/18 06:12:20;;;;;;;32.60;17.80;;;;;;;1.31;88.69;97829.70;130016;1256;114702;-66
2024/01/18 06:15:22;;;;;;;35.00;19.90;;;;;;;1.28;88.78;97837.92;129919;1258;114722;-64
2024/01/18 06:18:25;;;;;;;36.40;21.30;;;;;;;1.25;88.87;97837.04;130066;1277;114684;-65
2024/01/18 06:21:26;;;;;;;33.90;20.40;;;;;;;1.23;88.97;97847.18;129844;1256;115195;-64
2024/01/18 06:24:28;;;;;;;37.00;20.10;;;;;;;1.21;89.13;97851.66;129959;1259;114713;-64
2024/01/18 06:27:32;;;;;;;36.60;19.60;;;;;;;1.18;89.01;97859.00;130042;1259;115231;-65
2024/01/18 06:30:43;;;;;;;37.30;20.40;;;;;;;1.15;88.89;97860.91;130016;1257;114826;-65
2024/01/18 06:33:45;;;;;;;40.00;21.00;;;;;;;1.12;89.03;97870.02;129988;1260;114732;-64
2024/01/18 06:36:47;;;;;;;41.00;21.40;;;;;;;1.12;89.38;97880.21;130066;1259;115150;-66
2024/01/18 06:39:50;;;;;;;40.10;21.40;;;;;;;1.12;89.05;97891.10;130085;1260;114959;-66
2024/01/18 06:42:52;;;;;;;37.50;22.60;;;;;;;1.12;88.97;97892.73;129971;1259;114740;-63
2024/01/18 06:45:56;;;;;;;39.10;23.20;;;;;;;1.10;88.95;97891.59;130123;1259;114801;-70
2024/01/18 06:48:58;;;;;;;43.30;22.50;;;;;;;1.11;89.20;97897.35;129956;1277;115151;-73
2024/01/18 06:52:00;;;;;;;43.50;24.20;;;;;;;1.11;89.43;97894.70;129852;1277;114747;-67
2024/01/18 06:55:03;;;;;;;39.20;23.10;;;;;;;1.09;89.14;97900.44;129861;1256;114712;-64
2024/01/18 06:58:05;;;;;;;37.50;19.00;;;;;;;1.05;89.00;97902.34;130005;1278;114753;-65
2024/01/18 07:01:07;;;;;;;39.90;23.50;;;;;;;1.03;88.88;97904.39;129766;1278;115283;-67
2024/01/18 07:04:10;;;;;;;42.80;24.60;;;;;;;1.02;89.07;97910.95;129793;1259;114713;-64
2024/01/18 07:07:12;;;;;;;41.20;21.30;;;;;;;0.99;88.88;97917.62;129884;1258;114686;-64
2024/01/18 07:10:14;;;;;;;38.60;20.20;;;;;;;0.92;88.86;97918.66;129792;1260;114715;-69
2024/01/18 07:13:16;;;;;;;38.80;20.00;;;;;;;0.85;88.74;97923.71;129794;1278;114740;-70
2024/01/18 07:16:19;;;;;;;37.40;20.30;;;;;;;0.80;89.01;97929.27;129628;1257;114719;-66
2024/01/18 07:19:21;;;;;;;38.00;21.00;;;;;;;0.73;88.82;97930.27;129993;1259;114691;-65
2024/01/18 07:22:23;;;;;;;40.30;21.90;;;;;;;0.69;88.74;97928.70;129976;1278;114731;-72
2024/01/18 07:25:24;;;;;;;37.90;20.60;;;;;;;0.67;88.76;97928.83;129815;1260;114740;-67
2024/01/18 07:28:27;;;;;;;34.70;20.80;;;;;;;0.66;88.82;97935.55;129918;1274;114707;-65
2024/01/18 07:31:29;;;;;;;39.90;20.40;;;;;;;0.64;88.90;97945.45;129754;1256;114940;-70
2024/01/18 07:34:33;;;;;;;42.00;22.40;;;;;;;0.65;88.92;97948.23;129605;1256;114816;-65
2024/01/18 07:37:34;;;;;;;39.90;21.10;;;;;;;0.67;89.25;97941.11;129492;1261;114813;-65
2024/01/18 07:40:37;;;;;;;42.50;23.20;;;;;;;0.69;89.14;97943.81;129950;1262;114700;-64
2024/01/18 07:43:39;;;;;;;43.80;21.90;;;;;;;0.69;89.18;97945.52;130123;1260;114762;-70
2024/01/18 07:46:41;;;;;;;41.60;21.80;;;;;;;0.73;89.26;97947.84;129905;1260;114902;-71
2024/01/18 07:49:46;;;;;;;42.80;22.00;;;;;;;0.77;89.31;97949.42;129841;1259;115309;-65
2024/01/18 07:52:48;;;;;;;39.80;22.00;;;;;;;0.82;89.25;97949.54;129810;1270;115308;-71
2024/01/18 07:55:51;;;;;;;43.70;21.50;;;;;;;0.87;89.30;97942.97;129708;1278;115243;-73
2024/01/18 07:58:53;;;;;;;41.00;22.30;;;;;;;0.92;89.44;97939.39;129889;1259;114774;-65
2024/01/18 08:01:55;;;;;;;39.40;23.10;;;;;;;0.98;89.53;97949.27;130003;1278;114934;-68
2024/01/18 08:04:57;;;;;;;39.40;20.60;;;;;;;1.03;89.42;97956.08;129611;1259;114835;-71
2024/01/18 08:07:59;;;;;;;43.30;22.60;;;;;;;1.08;89.18;97966.40;129919;1259;115162;-68
2024/01/18 08:11:01;;;;;;;40.20;21.10;;;;;;;1.12;88.91;97979.73;129844;1259;114777;-65
2024/01/18 08:14:04;;;;;;;42.00;21.60;;;;;;;1.17;89.08;97990.55;129869;1259;114699;-68
2024/01/18 08:17:06;;;;;;;38.10;20.80;;;;;;;1.19;89.14;97993.94;129585;1264;114815;-68
2024/01/18 08:20:12;;;;;;;42.00;22.00;;;;;;;1.23;89.12;97996.61;129870;1261;114897;-66
2024/01/18 08:23:14;;;;;;;38.90;23.60;;;;;;;1.27;89.09;97999.92;129736;1264;114712;-68
2024/01/18 08:26:17;;;;;;;43.20;21.80;;;;;;;1.31;89.09;98001.64;129729;1257;114696;-65
2024/01/18 08:29:19;;;;;;;42.60;23.20;;;;;;;1.33;88.84;97999.09;129721;1256;114757;-64
2024/01/18 08:32:23;;;;;;;45.60;24.10;;;;;;;1.37;88.92;97994.49;129569;1278;114801;-64
2024/01/18 08:35:25;;;;;;;46.00;23.50;;;;;;;1.41;88.92;97993.06;129864;1256;114755;-65
2024/01/18 08:38:28;;;;;;;47.90;25.50;;;;;;;1.47;88.66;97998.23;129944;1259;115289;-71
2024/01/18 08:41:30;;;;;;;46.80;24.70;;;;;;;1.49;88.14;98010.42;129849;1260;115152;-66
2024/01/18 08:44:32;;;;;;;40.00;21.70;;;;;;;1.48;88.26;98013.66;129551;1264;114757;-69
2024/01/18 08:47:34;;;;;;;43.00;23.30;;;;;;;1.46;88.09;98014.63;129939;1262;114792;-71
2024/01/18 08:50:37;;;;;;;37.60;21.90;;;;;;;1.47;87.90;98021.26;129844;1256;114958;-67
2024/01/18 08:53:40;;;;;;;40.60;25.60;;;;;;;1.49;87.79;98020.66;129757;1257;114787;-73
2024/01/18 08:56:42;;;;;;;44.60;24.70;;;;;;;1.52;88.25;98027.35;129775;1259;114786;-73
2024/01/18 08:59:45;;;;;;;45.40;24.90;;;;;;;1.55;88.32;98036.01;129686;1271;114735;-65
2024/01/18 09:02:47;;;;;;;41.80;23.90;;;;;;;1.58;88.02;98031.13;129583;1278;114741;-67
2024/01/18 09:05:49;;;;;;;42.60;23.90;;;;;;;1.63;88.02;98029.84;129752;1256;114767;-71
2024/01/18 09:08:51;;;;;;;40.60;23.50;;;;;;;1.67;88.15;98031.19;129821;1259;114762;-69
2024/01/18 09:11:54;;;;;;;37.80;22.90;;;;;;;1.74;87.90;98037.20;129781;1259;114675;-70
2024/01/18 09:14:56;;;;;;;39.30;21.20;;;;;;;1.79;87.82;98048.74;129784;1259;115144;-70
2024/01/18 09:17:58;;;;;;;36.30;21.60;;;;;;;1.81;87.57;98050.75;129602;1263;114784;-68
2024/01/18 09:21:00;;;;;;;35.50;19.80;;;;;;;1.81;87.19;98052.19;129685;1259;114725;-70
2024/01/18 09:24:02;;;;;;;36.80;20.70;;;;;;;1.81;87.48;98061.83;129819;1259;114710;-65
2024/01/18 09:27:04;;;;;;;40.40;21.40;;;;;;;1.86;87.55;98065.45;129636;1259;114771;-72
2024/01/18 09:30:08;;;;;;;42.90;23.60;;;;;;;1.90;87.69;98071.05;129740;1259;114769;-71
2024/01/18 09:33:11;;;;;;;40.40;22.10;;;;;;;1.94;87.42;98073.14;129824;1259;115132;-66
2024/01/18 09:36:13;;;;;;;38.60;22.80;;;;;;;1.96;87.32;98081.13;129760;1259;114684;-72
2024/01/18 09:39:18;;;;;;;45.80;23.80;;;;;;;2.01;87.33;98082.67;129885;1259;114707;-69
2024/01/18 09:42:21;;;;;;;43.70;25.10;;;;;;;2.05;87.42;98089.52;129522;1256;114863;-68
2024/01/18 09:45:26;;;;;;;46.90;24.50;;;;;;;2.06;87.33;98084.02;129696;1259;114761;-66
2024/01/18 09:48:28;;;;;;;55.70;28.20;;;;;;;2.07;86.88;98082.91;129524;1265;128488;-70
2024/01/18 09:51:31;;;;;;;53.60;28.80;;;;;;;2.05;86.97;98077.16;129791;1261;114741;-66
2024/01/18 09:54:33;;;;;;;62.00;30.90;;;;;;;2.06;86.73;98084.19;130171;1259;114843;-64
2024/01/18 09:57:35;;;;;;;51.70;28.50;;;;;;;2.09;86.82;98086.45;129731;1263;114798;-64
2024/01/18 10:00:43;;;;;;;42.70;25.90;;;;;;;2.11;86.82;98086.91;129887;1259;114777;-66
2024/01/18 10:03:45;;;;;;;42.30;24.10;;;;;;;2.11;86.48;98090.42;129722;1264;114935;-63
2024/01/18 10:06:47;;;;;;;44.60;23.20;;;;;;;2.07;86.26;98088.52;129910;1259;114761;-64
2024/01/18 10:09:50;;;;;;;48.20;27.00;;;;;;;2.08;86.22;98093.92;130053;1259;114795;-66
2024/01/18 10:12:52;;;;;;;42.70;26.20;;;;;;;2.11;86.36;98098.34;129932;1271;115011;-65
2024/01/18 10:15:54;;;;;;;39.70;21.50;;;;;;;2.18;86.50;98100.63;129838;1259;115216;-64
2024/01/18 10:19:04;;;;;;;43.00;23.20;;;;;;;2.22;86.61;98095.31;129934;1259;114684;-66
2024/01/18 10:22:09;;;;;;;47.20;25.40;;;;;;;2.26;86.27;98103.06;130015;1277;114844;-65
2024/01/18 10:25:13;;;;;;;44.60;23.90;;;;;;;2.26;86.27;98101.44;129947;1277;114889;-65
2024/01/18 10:28:15;;;;;;;53.20;28.50;;;;;;;2.27;86.18;98098.97;129807;1260;115306;-65
2024/01/18 10:31:17;;;;;;;46.90;25.70;;;;;;;2.30;86.09;98098.61;129936;1258;114726;-65
2024/01/18 10:34:19;;;;;;;48.60;26.20;;;;;;;2.32;85.82;98096.23;130043;1257;114970;-65
2024/01/18 10:37:21;;;;;;;47.50;27.20;;;;;;;2.34;85.90;98111.27;129536;1262;114816;-66
2024/01/18 10:40:23;;;;;;;47.60;24.50;;;;;;;2.33;85.85;98127.16;129717;1271;114795;-65
2024/01/18 10:43:30;;;;;;;49.40;27.80;;;;;;;2.34;85.89;98127.52;129903;1277;115398;-65
2024/01/18 10:46:32;;;;;;;44.40;24.70;;;;;;;2.27;85.41;98122.71;129604;1277;114859;-65
2024/01/18 10:49:36;;;;;;;48.60;26.70;;;;;;;2.21;85.21;98124.61;129617;1256;115116;-65
2024/01/18 10:52:39;;;;;;;43.60;24.50;;;;;;;2.17;85.29;98118.67;129853;1259;114769;-65
2024/01/18 10:55:41;;;;;;;46.80;23.80;;;;;;;2.17;85.36;98110.91;129728;1270;114910;-65
2024/01/18 10:58:43;;;;;;;43.20;22.20;;;;;;;2.19;85.40;98108.86;129783;1259;114806;-65
2024/01/18 11:01:47;;;;;;;46.30;25.40;;;;;;;2.19;84.99;98102.20;129775;1259;114767;-66
2024/01/18 11:04:51;;;;;;;43.00;25.90;;;;;;;2.13;84.72;98107.08;129540;1278;114967;-66
2024/01/18 11:07:53;;;;;;;45.90;25.80;;;;;;;2.14;85.19;98116.16;129705;1259;128811;-65
2024/01/18 11:10:56;;;;;;;47.90;27.00;;;;;;;2.16;85.02;98124.70;129851;1259;114880;-65
2024/01/18 11:13:58;;;;;;;48.90;26.10;;;;;;;2.17;84.85;98117.43;129432;1263;151100;-64
2024/01/18 11:17:17;;;;;;;48.00;26.50;;;;;;;2.20;84.60;98104.27;129983;1259;114747;-65
2024/01/18 11:20:19;;;;;;;49.40;25.70;;;;;;;2.22;84.97;98111.35;129714;1278;115136;-65
2024/01/18 11:23:28;;;;;;;50.30;28.40;;;;;;;2.25;84.70;98124.06;129474;1257;115004;-65
2024/01/18 11:26:31;;;;;;;50.20;26.50;;;;;;;2.27;84.67;98122.03;129505;1260;128328;-65
2024/01/18 11:29:35;;;;;;;46.80;26.30;;;;;;;2.28;84.67;98119.16;129784;1256;114736;-65
2024/01/18 11:32:38;;;;;;;47.80;24.80;;;;;;;2.30;84.66;98114.33;129980;1259;114786;-65
2024/01/18 11:35:43;;;;;;;45.40;25.30;;;;;;;2.30;84.46;98120.47;129999;1277;114819;-66
2024/01/18 11:38:45;;;;;;;43.70;26.30;;;;;;;2.31;84.53;98122.55;129783;1273;114830;-66
2024/01/18 11:41:49;;;;;;;41.10;25.00;;;;;;;2.33;84.55;98125.60;129973;1260;114853;-66
2024/01/18 11:45:08;;;;;;;39.10;21.10;;;;;;;2.28;84.12;98127.27;129653;1260;114931;-66
2024/01/18 11:48:11;;;;;;;45.20;25.50;;;;;;;2.23;83.98;98130.17;129630;1257;114730;-66
2024/01/18 11:51:13;;;;;;;44.40;24.50;;;;;;;2.22;84.28;98135.30;129979;1264;114769;-67
2024/01/18 11:54:17;;;;;;;49.80;26.10;;;;;;;2.28;84.55;98146.10;129629;1262;114737;-66
2024/01/18 11:57:24;;;;;;;45.80;25.00;;;;;;;2.31;84.27;98153.56;129636;1259;128971;-68
2024/01/18 12:00:26;;;;;;;49.90;29.10;;;;;;;2.25;84.08;98149.05;129984;1268;114733;-68
2024/01/18 12:03:28;;;;;;;47.30;26.60;;;;;;;2.20;83.73;98147.39;130035;1260;114647;-72
2024/01/18 12:06:31;;;;;;;44.30;24.30;;;;;;;2.15;83.93;98149.05;129867;1259;115141;-71
2024/01/18 12:09:34;;;;;;;45.60;27.70;;;;;;;2.11;83.85;98145.70;129957;1259;114689;-67
2024/01/18 12:12:39;;;;;;;42.90;24.90;;;;;;;2.06;83.48;98144.39;129969;1267;114860;-67
2024/01/18 12:15:41;;;;;;;44.80;23.70;;;;;;;1.95;83.55;98141.25;129872;1259;127942;-67
2024/01/18 12:18:43;;;;;;;42.10;24.40;;;;;;;1.90;83.66;98137.10;129968;1256;114859;-66
2024/01/18 12:21:46;;;;;;;44.20;27.00;;;;;;;1.89;83.66;98136.25;130030;1258;114684;-67
2024/01/18 12:24:49;;;;;;;41.30;24.40;;;;;;;1.90;83.73;98137.42;129599;1261;114892;-66
2024/01/18 12:27:52;;;;;;;47.60;25.40;;;;;;;1.91;83.67;98136.86;129642;1264;114827;-70
2024/01/18 12:31:00;;;;;;;41.50;22.20;;;;;;;1.91;83.82;98145.09;129737;1278;114840;-66
2024/01/18 12:34:03;;;;;;;40.00;23.70;;;;;;;1.92;83.79;98147.87;129506;1260;128046;-68
2024/01/18 12:37:05;;;;;;;43.10;25.90;;;;;;;1.95;83.60;98148.43;129840;1259;114799;-67
2024/01/18 12:40:09;;;;;;;40.90;24.10;;;;;;;1.96;83.50;98159.11;129850;1259;114728;-66
2024/01/18 12:43:11;;;;;;;48.70;25.50;;;;;;;1.99;83.79;98159.52;129791;1259;114882;-67
2024/01/18 12:46:14;;;;;;;46.00;27.40;;;;;;;2.03;83.75;98148.05;129936;1259;114786;-66
2024/01/18 12:49:20;;;;;;;43.90;25.30;;;;;;;2.04;83.52;98147.29;129732;1274;114789;-67
2024/01/18 12:52:29;;;;;;;44.70;25.20;;;;;;;2.05;83.52;98153.92;129638;1277;128452;-66
2024/01/18 12:55:31;;;;;;;42.60;24.40;;;;;;;2.11;83.87;98158.05;129582;1276;115329;-68
2024/01/18 12:58:33;;;;;;;41.50;23.10;;;;;;;2.11;83.52;98164.57;129734;1256;114728;-66
2024/01/18 13:01:36;;;;;;;40.40;21.80;;;;;;;2.08;83.33;98166.11;129877;1271;114753;-66
2024/01/18 13:04:38;;;;;;;42.70;24.70;;;;;;;2.02;83.06;98167.98;129572;1274;114806;-66
2024/01/18 13:07:41;;;;;;;41.20;23.60;;;;;;;1.96;83.12;98179.02;129935;1270;114728;-67
2024/01/18 13:10:45;;;;;;;38.90;23.10;;;;;;;1.90;82.80;98179.65;129930;1275;114726;-66
2024/01/18 13:13:48;;;;;;;41.90;23.20;;;;;;;1.78;82.76;98174.23;129592;1261;114930;-66
2024/01/18 13:16:52;;;;;;;42.00;23.90;;;;;;;1.71;82.91;98165.44;129909;1258;114789;-67
2024/01/18 13:19:54;;;;;;;38.90;21.30;;;;;;;1.66;82.71;98165.83;129839;1259;115084;-66
2024/01/18 13:22:56;;;;;;;40.20;21.60;;;;;;;1.62;82.99;98167.48;129766;1278;114805;-66
2024/01/18 13:25:58;;;;;;;30.30;18.00;;;;;;;1.58;82.85;98177.86;129719;1259;114808;-66
2024/01/18 13:29:03;;;;;;;36.70;20.80;;;;;;;1.51;82.57;98186.42;129348;1263;128448;-66
2024/01/18 13:32:05;;;;;;;41.90;24.00;;;;;;;1.42;82.47;98191.40;129780;1259;114696;-65
2024/01/18 13:35:08;;;;;;;41.40;21.80;;;;;;;1.36;82.62;98199.45;129812;1259;114760;-66
2024/01/18 13:38:10;;;;;;;42.20;23.20;;;;;;;1.30;82.80;98212.73;129800;1260;115341;-66
2024/01/18 13:41:12;;;;;;;40.30;24.40;;;;;;;1.27;83.05;98217.95;129920;1263;114780;-66
2024/01/18 13:44:14;;;;;;;44.20;23.50;;;;;;;1.28;83.27;98215.45;129968;1259;114750;-67
2024/01/18 13:47:16;;;;;;;42.10;25.50;;;;;;;1.24;82.98;98214.05;129738;1270;114691;-67
2024/01/18 13:50:21;;;;;;;43.30;23.60;;;;;;;1.20;82.99;98222.50;129876;1277;114869;-67